Bighorn, Montana
Current Conditions -  °F | °C
As of 4:53 AM on Sunday 25 Jan 2015 (Local Time) from KBIL Reporting Station
Overcast Overcast  
Wind Chill: 33°   Ceiling: 18000
Heat Index: 40°   Visibility: 10mi
Dew Point: 31°   Wind: 10mph
Humidity: 70%   Direction: 220°SW
Pressure: 30.05"   Gusts: NA
Location:  46.16°N, 107.45°W
Report Text: KBIL 251153Z 22009KT 10SM SCT090 SCT110 BKN180 OVC220 04/M01 A3005 RMK AO2 SLP188 T00441006 10089 20044 58013
Loading
Personal Weather Stations






























Interactive Weather Map New forecast layout! Learn more

10-Day Weather Forecast

Advertisements
Track Severe Weather on mobile